Time;durP1;ratioP1;P1;durP2;ratioP2;P2;SDS_P1;SDS_P2;PMS_P1;PMS_P2;Temp;Humidity;BMP_temperature;BMP_pressure;BME280_temperature;BME280_humidity;BME280_pressure;Samples;Min_cycle;Max_cycle;Signal;HPM_P1;HPM_P2
2023/05/20 00:01:36;;;;;;;11.20;10.10;;;13.50;94.70;;;;;;5076609;28;20467;-67
2023/05/20 00:04:04;;;;;;;13.63;10.87;;;13.50;94.60;;;;;;5075979;28;20494;-67
2023/05/20 00:06:33;;;;;;;13.77;11.33;;;13.60;94.40;;;;;;5075683;28;20443;-67
2023/05/20 00:09:00;;;;;;;10.87;9.77;;;13.50;94.30;;;;;;5075748;28;20489;-67
2023/05/20 00:11:27;;;;;;;11.37;9.10;;;13.50;94.30;;;;;;5075794;28;20486;-67
2023/05/20 00:13:54;;;;;;;11.27;9.07;;;13.50;94.60;;;;;;5075753;28;20436;-67
2023/05/20 00:16:21;;;;;;;11.47;10.33;;;13.40;94.80;;;;;;5074810;28;20503;-67
2023/05/20 00:18:48;;;;;;;10.60;9.47;;;13.50;94.80;;;;;;5075698;28;20436;-67
2023/05/20 00:21:15;;;;;;;11.57;9.40;;;13.50;94.80;;;;;;5075404;28;20497;-67
2023/05/20 00:23:44;;;;;;;20.00;9.50;;;13.50;94.90;;;;;;5075450;28;20471;-67
2023/05/20 00:26:10;;;;;;;9.60;8.60;;;13.50;95.00;;;;;;5075533;28;20463;-67
2023/05/20 00:28:37;;;;;;;11.00;9.07;;;13.50;95.00;;;;;;5075581;28;20463;-67
2023/05/20 00:31:05;;;;;;;9.27;8.30;;;13.50;94.80;;;;;;5075240;28;20511;-67
2023/05/20 00:33:32;;;;;;;10.33;9.23;;;13.50;94.90;;;;;;5075251;28;20468;-67
2023/05/20 00:35:59;;;;;;;10.37;9.23;;;13.50;94.90;;;;;;5075199;28;20931;-67
2023/05/20 00:38:26;;;;;;;11.77;9.83;;;13.50;94.80;;;;;;5075296;28;20483;-67
2023/05/20 00:40:54;;;;;;;12.03;10.13;;;13.40;94.80;;;;;;5075282;28;20957;-67
2023/05/20 00:43:24;;;;;;;16.60;10.80;;;13.40;95.00;;;;;;5075053;28;20474;-67
2023/05/20 00:45:51;;;;;;;10.90;9.80;;;13.40;95.20;;;;;;5074621;28;20949;-67
2023/05/20 00:48:19;;;;;;;13.00;9.57;;;13.40;95.20;;;;;;5074989;28;20432;-67
2023/05/20 00:50:47;;;;;;;12.13;9.90;;;13.40;95.40;;;;;;5074775;28;20570;-67
2023/05/20 00:53:17;;;;;;;12.10;9.83;;;13.40;95.60;;;;;;5075183;28;20471;-67
2023/05/20 00:55:44;;;;;;;12.27;9.67;;;13.40;95.70;;;;;;5074943;28;20535;-67
2023/05/20 00:58:12;;;;;;;12.77;10.83;;;13.40;95.90;;;;;;5074824;28;20428;-67
2023/05/20 01:00:40;;;;;;;14.50;11.30;;;13.40;96.00;;;;;;5074940;28;20478;-67
2023/05/20 01:03:07;;;;;;;13.97;10.77;;;13.40;96.00;;;;;;5074692;28;20885;-67
2023/05/20 01:05:34;;;;;;;11.17;9.90;;;13.50;96.00;;;;;;5074560;28;20447;-67
2023/05/20 01:08:01;;;;;;;11.47;9.70;;;13.50;96.20;;;;;;5074176;28;20436;-67
2023/05/20 01:10:30;;;;;;;14.60;10.70;;;13.40;96.40;;;;;;5074313;28;20467;-67
2023/05/20 01:13:01;;;;;;;13.90;11.37;;;13.40;96.50;;;;;;5074204;28;20472;-67
2023/05/20 01:15:31;;;;;;;13.60;11.40;;;13.40;96.60;;;;;;5074321;28;20849;-67
2023/05/20 01:18:01;;;;;;;11.67;10.37;;;13.50;96.70;;;;;;5074321;28;20428;-67
2023/05/20 01:20:31;;;;;;;11.70;10.10;;;13.40;96.80;;;;;;5074346;28;20472;-67
2023/05/20 01:23:00;;;;;;;13.13;10.90;;;13.40;96.90;;;;;;5074345;28;20443;-67
2023/05/20 01:25:27;;;;;;;11.57;9.93;;;13.40;97.00;;;;;;5074418;28;20447;-67
2023/05/20 01:27:56;;;;;;;14.80;12.60;;;13.40;96.90;;;;;;5074200;28;20786;-67
2023/05/20 01:30:27;;;;;;;13.57;11.10;;;13.40;96.90;;;;;;5074239;28;20436;-68
2023/05/20 01:32:59;;;;;;;13.80;11.33;;;13.40;97.00;;;;;;5074236;28;20436;-67
2023/05/20 01:35:27;;;;;;;12.23;10.97;;;13.40;97.20;;;;;;5073866;28;20432;-67
2023/05/20 01:37:57;;;;;;;12.90;11.50;;;13.40;97.20;;;;;;5073648;28;20481;-67
2023/05/20 01:40:27;;;;;;;11.37;10.17;;;13.40;97.10;;;;;;5073818;28;20468;-67
2023/05/20 01:42:59;;;;;;;14.07;11.70;;;13.40;97.30;;;;;;5073937;28;20454;-67
2023/05/20 01:45:31;;;;;;;13.67;11.13;;;13.40;97.30;;;;;;5073992;28;20843;-67
2023/05/20 01:48:00;;;;;;;13.00;11.67;;;13.40;97.30;;;;;;5073721;28;20477;-67
2023/05/20 01:50:27;;;;;;;13.90;12.30;;;13.40;97.40;;;;;;5073827;28;20467;-67
2023/05/20 01:52:54;;;;;;;13.33;10.87;;;13.40;97.40;;;;;;5073504;28;20522;-67
2023/05/20 01:55:21;;;;;;;17.07;11.70;;;13.40;97.20;;;;;;5073447;28;20489;-67
2023/05/20 01:57:50;;;;;;;13.77;10.97;;;13.40;97.10;;;;;;5073448;28;20524;-67
2023/05/20 02:00:17;;;;;;;15.47;11.73;;;13.40;97.10;;;;;;5073620;28;20452;-67
2023/05/20 02:02:44;;;;;;;14.63;11.70;;;13.40;97.20;;;;;;5073519;28;20523;-67
2023/05/20 02:05:11;;;;;;;13.10;11.37;;;13.40;97.30;;;;;;5073557;28;20490;-67
2023/05/20 02:07:38;;;;;;;13.10;10.70;;;13.50;97.50;;;;;;5073213;28;20446;-67
2023/05/20 02:10:06;;;;;;;13.83;11.60;;;13.40;97.50;;;;;;5073318;28;20478;-67
2023/05/20 02:12:33;;;;;;;13.67;10.10;;;13.40;97.70;;;;;;5073192;28;20484;-67
2023/05/20 02:15:02;;;;;;;11.67;9.60;;;13.40;97.70;;;;;;5072989;28;20475;-67
2023/05/20 02:17:29;;;;;;;11.47;9.60;;;13.50;97.60;;;;;;5073161;28;20855;-67
2023/05/20 02:19:56;;;;;;;12.23;10.70;;;13.40;97.30;;;;;;5072922;28;20918;-67
2023/05/20 02:22:23;;;;;;;18.67;11.53;;;13.40;97.30;;;;;;5073177;28;20476;-67
2023/05/20 02:24:50;;;;;;;13.60;12.20;;;13.40;97.40;;;;;;5073014;28;20476;-67
2023/05/20 02:27:17;;;;;;;16.70;10.67;;;13.40;97.30;;;;;;5072944;28;20909;-67
2023/05/20 02:29:44;;;;;;;12.87;11.60;;;13.40;97.40;;;;;;5073140;28;20451;-68
2023/05/20 02:32:12;;;;;;;10.00;8.90;;;13.30;97.40;;;;;;5073323;28;20534;-67
2023/05/20 02:34:39;;;;;;;11.60;10.00;;;13.30;97.40;;;;;;5072849;28;20524;-67
2023/05/20 02:37:07;;;;;;;13.50;10.13;;;13.30;97.60;;;;;;5073208;28;20487;-67
2023/05/20 02:39:34;;;;;;;50.83;31.87;;;13.30;97.70;;;;;;5072739;28;20470;-67
2023/05/20 02:42:00;;;;;;;19.20;13.77;;;13.30;97.70;;;;;;5072573;28;20471;-67
2023/05/20 02:44:27;;;;;;;14.73;11.00;;;13.30;97.70;;;;;;5072878;28;20475;-67
2023/05/20 02:46:54;;;;;;;13.70;10.13;;;13.30;97.50;;;;;;5072928;28;20440;-67
2023/05/20 02:49:23;;;;;;;11.07;9.87;;;13.20;97.60;;;;;;5073098;28;20528;-67
2023/05/20 02:51:50;;;;;;;11.87;9.90;;;13.20;97.40;;;;;;5072366;28;20475;-67
2023/05/20 02:54:18;;;;;;;12.30;10.00;;;13.10;97.80;;;;;;5072865;28;20471;-67
2023/05/20 02:56:44;;;;;;;11.50;10.20;;;13.00;98.00;;;;;;5072899;28;20436;-67
2023/05/20 02:59:11;;;;;;;13.80;11.00;;;13.00;98.20;;;;;;5072643;28;20436;-67
2023/05/20 03:01:39;;;;;;;11.30;10.07;;;13.00;98.40;;;;;;5072698;28;20506;-67
2023/05/20 03:04:06;;;;;;;13.27;10.57;;;12.90;98.50;;;;;;5072569;28;20914;-67
2023/05/20 03:06:34;;;;;;;11.40;9.80;;;12.90;98.60;;;;;;5072678;28;20476;-67
2023/05/20 03:09:01;;;;;;;10.20;9.10;;;12.80;98.90;;;;;;5072335;28;20522;-67
2023/05/20 03:11:28;;;;;;;10.67;9.73;;;12.80;99.00;;;;;;5075198;28;20514;-67
2023/05/20 03:13:57;;;;;;;14.70;9.60;;;12.80;99.00;;;;;;5076584;28;20474;-67
2023/05/20 03:16:24;;;;;;;10.43;9.33;;;12.70;99.20;;;;;;5076191;28;20506;-67
2023/05/20 03:18:53;;;;;;;12.20;10.90;;;12.70;99.20;;;;;;5076843;28;20432;-67
2023/05/20 03:21:22;;;;;;;9.80;8.80;;;12.70;99.30;;;;;;5076544;28;20520;-67
2023/05/20 03:23:51;;;;;;;10.52;9.10;;;12.70;99.50;;;;;;5076647;28;20538;-67
2023/05/20 03:26:18;;;;;;;14.10;10.43;;;12.60;99.50;;;;;;5076614;28;20236;-67
2023/05/20 03:28:45;;;;;;;12.23;10.30;;;12.50;99.50;;;;;;5076541;28;20473;-67
2023/05/20 03:31:12;;;;;;;10.93;9.83;;;12.50;99.60;;;;;;5076480;28;20844;-67
2023/05/20 03:33:39;;;;;;;11.50;10.40;;;12.40;99.70;;;;;;5076540;28;20861;-67
2023/05/20 03:36:06;;;;;;;12.40;10.60;;;12.40;99.90;;;;;;5076380;28;20494;-67
2023/05/20 03:38:33;;;;;;;13.27;11.32;;;12.40;99.90;;;;;;5076360;28;20432;-67
2023/05/20 03:41:02;;;;;;;10.97;9.70;;;12.40;99.90;;;;;;5076287;28;20236;-67
2023/05/20 03:43:29;;;;;;;11.53;10.30;;;12.40;99.90;;;;;;5076203;28;20450;-67
2023/05/20 03:45:56;;;;;;;13.00;11.47;;;12.40;99.90;;;;;;5075947;28;21013;-67
2023/05/20 03:48:23;;;;;;;15.23;12.63;;;12.40;99.90;;;;;;5075832;28;20515;-67
2023/05/20 03:50:50;;;;;;;12.60;11.30;;;12.40;99.90;;;;;;5076020;28;20471;-67
2023/05/20 03:53:19;;;;;;;11.90;10.40;;;12.50;99.90;;;;;;5075556;28;20476;-67
2023/05/20 03:55:45;;;;;;;14.63;12.23;;;12.50;99.90;;;;;;5075645;28;20432;-67
2023/05/20 03:58:14;;;;;;;13.80;11.27;;;12.50;99.90;;;;;;5076124;28;20471;-67
2023/05/20 04:00:41;;;;;;;13.20;11.90;;;12.50;99.90;;;;;;5075900;28;20930;-67
2023/05/20 04:03:09;;;;;;;11.57;9.60;;;12.50;99.90;;;;;;5075798;28;20443;-67
2023/05/20 04:05:36;;;;;;;13.67;11.97;;;12.60;99.90;;;;;;5075794;28;20432;-67
2023/05/20 04:08:13;;;;;;;13.63;11.50;;;12.60;99.90;;;;;;5075684;28;20440;-67
2023/05/20 04:10:41;;;;;;;17.07;11.10;;;12.60;99.90;;;;;;5075770;28;20493;-67
2023/05/20 04:13:14;;;;;;;11.97;10.77;;;12.70;99.90;;;;;;5075599;28;20483;-67
2023/05/20 04:15:41;;;;;;;13.00;10.80;;;12.70;99.90;;;;;;5075176;28;20507;-67
2023/05/20 04:18:09;;;;;;;12.67;10.00;;;12.70;99.90;;;;;;5075615;28;20588;-67
2023/05/20 04:20:36;;;;;;;15.77;11.83;;;12.80;99.90;;;;;;5075154;28;20867;-67
2023/05/20 04:23:03;;;;;;;16.43;12.87;;;12.80;99.90;;;;;;5074991;28;20539;-67
2023/05/20 04:25:30;;;;;;;13.90;11.10;;;12.80;99.90;;;;;;5075055;28;20436;-68
2023/05/20 04:27:58;;;;;;;19.53;13.87;;;12.90;99.80;;;;;;5075326;28;20432;-67
2023/05/20 04:30:27;;;;;;;15.40;11.27;;;12.90;99.60;;;;;;5075007;28;20446;-67
2023/05/20 04:32:54;;;;;;;14.20;12.10;;;13.00;99.40;;;;;;5075511;28;20765;-67
2023/05/20 04:35:24;;;;;;;14.80;12.30;;;13.00;99.10;;;;;;5075451;28;20439;-67
2023/05/20 04:37:52;;;;;;;11.63;10.40;;;13.00;99.10;;;;;;5075185;28;20767;-67
2023/05/20 04:40:20;;;;;;;16.03;11.60;;;13.00;99.10;;;;;;5075254;28;20428;-67
2023/05/20 04:42:47;;;;;;;14.17;10.43;;;13.10;98.90;;;;;;5074810;28;20447;-67
2023/05/20 04:45:13;;;;;;;14.23;10.30;;;13.10;98.90;;;;;;5074929;28;20830;-67
2023/05/20 04:47:43;;;;;;;14.10;10.07;;;13.10;98.90;;;;;;5074902;28;20467;-67
2023/05/20 04:50:12;;;;;;;14.37;11.93;;;13.10;98.80;;;;;;5075028;28;20833;-67
2023/05/20 04:52:40;;;;;;;15.37;11.80;;;13.10;98.90;;;;;;5074756;28;20483;-67
2023/05/20 04:55:09;;;;;;;16.03;12.40;;;13.20;98.90;;;;;;5075083;28;20861;-67
2023/05/20 04:57:38;;;;;;;16.63;13.33;;;13.20;98.70;;;;;;5074935;28;20988;-67
2023/05/20 05:00:08;;;;;;;16.87;11.73;;;13.30;98.70;;;;;;5074634;28;20459;-67
2023/05/20 05:02:35;;;;;;;17.40;13.63;;;13.30;98.60;;;;;;5074638;28;20478;-67
2023/05/20 05:05:03;;;;;;;16.60;12.60;;;13.30;98.30;;;;;;5074803;28;20828;-67
2023/05/20 05:07:31;;;;;;;15.63;11.90;;;13.40;98.30;;;;;;5074651;28;20965;-68
2023/05/20 05:09:57;;;;;;;17.27;10.73;;;13.50;98.00;;;;;;5074506;28;20790;-67
2023/05/20 05:12:24;;;;;;;14.93;10.50;;;13.60;98.00;;;;;;5074070;28;20572;-67
2023/05/20 05:14:52;;;;;;;15.23;10.70;;;13.60;97.60;;;;;;5074355;28;20471;-67
2023/05/20 05:17:18;;;;;;;13.47;10.23;;;13.70;97.40;;;;;;5074092;28;20440;-68
2023/05/20 05:19:45;;;;;;;12.67;11.40;;;13.90;97.60;;;;;;5074482;28;20478;-67
2023/05/20 05:22:14;;;;;;;12.27;11.03;;;14.00;97.60;;;;;;5074183;28;20475;-67
2023/05/20 05:24:41;;;;;;;12.70;10.57;;;14.20;97.30;;;;;;5073876;28;20428;-67
2023/05/20 05:27:08;;;;;;;11.60;9.63;;;14.30;97.10;;;;;;5076911;28;20447;-67
2023/05/20 05:29:35;;;;;;;11.70;10.03;;;14.40;96.50;;;;;;5090083;28;20435;-67
2023/05/20 05:32:03;;;;;;;14.10;10.70;;;14.50;96.30;;;;;;5082225;28;20527;-67
2023/05/20 05:34:30;;;;;;;12.40;10.60;;;14.50;95.70;;;;;;5089602;28;20921;-67
2023/05/20 05:36:57;;;;;;;13.87;9.90;;;14.60;95.20;;;;;;5090857;28;20439;-67
2023/05/20 05:39:26;;;;;;;11.87;9.93;;;14.60;95.00;;;;;;5090972;28;20816;-67
2023/05/20 05:41:55;;;;;;;12.10;9.40;;;14.60;94.80;;;;;;5077918;28;20436;-67
2023/05/20 05:44:22;;;;;;;11.93;9.20;;;14.70;94.60;;;;;;5072769;28;20428;-68
2023/05/20 05:46:49;;;;;;;15.33;11.97;;;14.70;94.80;;;;;;5086266;28;20443;-67
2023/05/20 05:49:16;;;;;;;16.23;10.23;;;14.80;94.50;;;;;;5084864;28;20523;-67
2023/05/20 05:51:43;;;;;;;11.77;9.40;;;14.80;94.50;;;;;;5083148;28;20444;-68
2023/05/20 05:54:10;;;;;;;13.30;11.90;;;14.90;94.60;;;;;;5079145;28;20488;-68
2023/05/20 05:56:38;;;;;;;13.07;10.43;;;14.90;94.80;;;;;;5082893;28;20515;-67
2023/05/20 05:59:06;;;;;;;13.40;10.47;;;14.90;94.10;;;;;;5085778;28;20450;-67
2023/05/20 06:01:33;;;;;;;14.83;10.87;;;14.90;94.30;;;;;;5082774;28;21259;-68
2023/05/20 06:04:00;;;;;;;14.30;11.33;;;14.90;94.30;;;;;;5080207;28;20446;-67
2023/05/20 06:06:27;;;;;;;13.40;10.23;;;14.90;94.00;;;;;;5077494;28;20444;-67
2023/05/20 06:08:55;;;;;;;12.67;10.23;;;14.80;94.00;;;;;;5072380;28;20436;-67
2023/05/20 06:11:22;;;;;;;12.67;10.80;;;14.80;94.10;;;;;;5087862;28;20431;-67
2023/05/20 06:13:51;;;;;;;13.63;11.67;;;14.80;94.30;;;;;;5089815;28;20500;-67
2023/05/20 06:16:18;;;;;;;13.00;10.57;;;14.80;94.50;;;;;;5086193;28;20479;-68
2023/05/20 06:18:48;;;;;;;12.53;11.20;;;14.90;94.60;;;;;;5085138;28;20468;-68
2023/05/20 06:21:17;;;;;;;14.03;10.80;;;14.90;94.80;;;;;;5078955;28;20952;-68
2023/05/20 06:23:46;;;;;;;12.77;10.30;;;14.90;94.90;;;;;;5087035;28;20435;-68
2023/05/20 06:26:15;;;;;;;17.23;12.00;;;15.00;94.80;;;;;;5073906;28;20444;-68
2023/05/20 06:28:44;;;;;;;12.40;11.10;;;15.00;94.70;;;;;;5089816;28;20525;-68
2023/05/20 06:31:12;;;;;;;15.13;11.47;;;15.10;94.40;;;;;;5090280;28;20943;-68
2023/05/20 06:33:40;;;;;;;16.40;11.67;;;15.20;94.30;;;;;;5089914;28;20904;-68
2023/05/20 06:36:07;;;;;;;14.17;11.87;;;15.30;94.10;;;;;;5087093;28;20463;-68
2023/05/20 06:38:34;;;;;;;13.33;10.80;;;15.40;94.00;;;;;;5090239;28;20951;-68
2023/05/20 06:41:01;;;;;;;16.93;11.60;;;15.60;93.80;;;;;;5090556;28;20516;-68
2023/05/20 06:43:29;;;;;;;13.47;10.90;;;15.70;93.70;;;;;;5090846;28;20463;-68
2023/05/20 06:45:56;;;;;;;14.67;12.47;;;15.70;93.40;;;;;;5090025;28;20446;-68
2023/05/20 06:48:24;;;;;;;13.77;11.40;;;15.70;93.30;;;;;;5090355;28;20976;-68
2023/05/20 06:50:51;;;;;;;14.60;11.27;;;15.70;93.40;;;;;;5085730;28;20881;-68
2023/05/20 06:53:18;;;;;;;14.90;11.40;;;15.70;93.60;;;;;;5089117;28;20507;-68
2023/05/20 06:55:46;;;;;;;16.67;11.73;;;15.70;93.60;;;;;;5089260;28;20435;-69
2023/05/20 06:58:13;;;;;;;13.73;11.67;;;15.80;93.70;;;;;;5089825;28;20428;-67
2023/05/20 07:00:40;;;;;;;13.23;11.80;;;15.80;93.40;;;;;;5081189;28;20451;-67
2023/05/20 07:03:07;;;;;;;16.70;13.10;;;15.80;93.10;;;;;;5087650;28;20443;-68
2023/05/20 07:05:36;;;;;;;15.23;11.53;;;15.80;93.00;;;;;;5088259;28;20798;-68
2023/05/20 07:08:03;;;;;;;16.73;13.60;;;15.80;93.00;;;;;;5089065;28;20471;-68
2023/05/20 07:10:30;;;;;;;18.67;13.17;;;15.80;93.00;;;;;;5082229;28;20493;-68
2023/05/20 07:12:57;;;;;;;18.13;14.10;;;15.90;93.00;;;;;;5071600;28;20483;-68
2023/05/20 07:15:24;;;;;;;13.67;11.60;;;16.00;93.00;;;;;;5088089;28;20498;-68
2023/05/20 07:17:51;;;;;;;17.57;13.23;;;16.20;92.20;;;;;;5089323;28;20449;-68
2023/05/20 07:20:18;;;;;;;19.67;13.20;;;16.20;92.00;;;;;;5088020;28;20448;-69
2023/05/20 07:22:49;;;;;;;13.47;11.93;;;16.30;92.10;;;;;;5086172;28;20543;-68
2023/05/20 07:25:16;;;;;;;15.50;13.00;;;16.30;92.00;;;;;;5084004;28;20533;-68
2023/05/20 07:27:43;;;;;;;17.40;12.10;;;16.30;91.70;;;;;;5078549;28;20443;-69
2023/05/20 07:30:11;;;;;;;15.60;10.97;;;16.30;91.50;;;;;;5089665;28;20443;-68
2023/05/20 07:32:38;;;;;;;17.00;13.07;;;16.40;91.20;;;;;;5089364;28;20973;-68
2023/05/20 07:35:10;;;;;;;14.07;11.60;;;16.60;91.50;;;;;;5085847;28;20474;-68
2023/05/20 07:37:37;;;;;;;13.20;11.80;;;16.70;91.30;;;;;;5091524;28;20580;-68
2023/05/20 07:40:09;;;;;;;13.30;11.37;;;16.80;91.10;;;;;;5073444;28;20459;-68
2023/05/20 07:42:36;;;;;;;16.97;12.27;;;16.90;90.50;;;;;;5084317;28;20431;-69
2023/05/20 07:45:05;;;;;;;15.50;11.83;;;17.10;90.10;;;;;;5091608;28;20431;-69
2023/05/20 07:47:32;;;;;;;14.03;11.80;;;17.20;89.70;;;;;;5092077;28;20427;-68
2023/05/20 07:49:59;;;;;;;12.53;10.20;;;17.30;90.00;;;;;;5092135;28;20996;-69
2023/05/20 07:52:30;;;;;;;16.73;10.47;;;17.40;89.70;;;;;;5092537;28;20462;-69
2023/05/20 07:55:10;;;;;;;13.97;11.63;;;17.80;89.20;;;;;;5092423;28;20434;-69
2023/05/20 07:57:42;;;;;;;13.13;11.13;;;18.20;87.00;;;;;;5095817;28;20430;-69
2023/05/20 08:00:10;;;;;;;15.13;11.30;;;18.30;84.60;;;;;;5096575;28;20430;-68
2023/05/20 08:02:38;;;;;;;15.80;10.77;;;18.40;82.40;;;;;;5096326;28;20526;-69
2023/05/20 08:05:10;;;;;;;16.80;11.50;;;18.50;82.10;;;;;;5097744;28;20729;-68
2023/05/20 08:07:39;;;;;;;12.67;11.37;;;18.70;82.20;;;;;;5096972;28;20434;-69
2023/05/20 08:10:13;;;;;;;12.20;10.90;;;18.90;81.40;;;;;;5095773;28;20805;-69
2023/05/20 08:12:42;;;;;;;13.53;10.20;;;19.00;80.80;;;;;;5095642;28;20988;-69
2023/05/20 08:15:10;;;;;;;12.90;10.00;;;19.20;81.90;;;;;;5095841;28;20457;-68
2023/05/20 08:17:37;;;;;;;12.63;10.90;;;19.50;81.90;;;;;;5095994;28;20492;-68
2023/05/20 08:20:06;;;;;;;10.00;8.33;;;19.70;79.00;;;;;;5096019;28;20470;-69
2023/05/20 08:22:34;;;;;;;12.10;9.37;;;19.80;76.70;;;;;;5095739;28;20466;-68
2023/05/20 08:25:03;;;;;;;11.83;9.80;;;19.90;75.30;;;;;;5095690;28;20427;-69
2023/05/20 08:27:31;;;;;;;12.93;9.63;;;19.80;74.70;;;;;;5095145;28;20435;-69
2023/05/20 08:29:58;;;;;;;12.30;9.60;;;19.90;74.80;;;;;;5095764;28;20427;-69
2023/05/20 08:32:26;;;;;;;12.10;9.50;;;20.10;76.20;;;;;;5095657;28;20419;-69
2023/05/20 08:35:00;;;;;;;10.90;9.10;;;20.30;74.90;;;;;;5095658;28;20521;-69
2023/05/20 08:37:29;;;;;;;11.73;10.00;;;20.40;74.10;;;;;;5095698;28;20457;-69
2023/05/20 08:39:56;;;;;;;10.57;9.47;;;20.50;73.30;;;;;;5095228;28;20929;-69
2023/05/20 08:42:25;;;;;;;11.63;8.47;;;20.60;72.90;;;;;;5095612;28;20837;-69
2023/05/20 08:45:02;;;;;;;11.27;9.10;;;20.60;71.90;;;;;;5094976;28;20513;-69
2023/05/20 08:47:30;;;;;;;9.80;8.77;;;20.70;71.70;;;;;;5095157;28;20524;-66
2023/05/20 08:49:57;;;;;;;12.20;9.57;;;20.80;70.70;;;;;;5094977;28;20766;-67
2023/05/20 08:52:34;;;;;;;11.30;9.17;;;20.90;70.10;;;;;;5095304;28;20443;-67
2023/05/20 08:55:02;;;;;;;10.23;8.87;;;21.00;70.00;;;;;;5095201;28;20510;-67
2023/05/20 08:57:35;;;;;;;9.90;8.57;;;21.10;70.30;;;;;;5095160;28;20431;-67
2023/05/20 09:00:09;;;;;;;10.27;7.80;;;21.20;70.10;;;;;;5095485;28;20477;-67
2023/05/20 09:02:37;;;;;;;8.97;7.90;;;21.40;69.40;;;;;;5095027;28;20423;-67
2023/05/20 09:05:05;;;;;;;9.57;8.20;;;21.50;69.00;;;;;;5095102;28;20423;-67
2023/05/20 09:07:32;;;;;;;10.50;8.03;;;21.60;69.30;;;;;;5093391;28;20507;-68
2023/05/20 09:09:59;;;;;;;9.93;7.37;;;21.70;70.10;;;;;;5094944;28;20538;-68
2023/05/20 09:12:26;;;;;;;9.60;7.10;;;21.80;69.10;;;;;;5094707;28;20470;-68
2023/05/20 09:14:53;;;;;;;10.33;7.40;;;21.80;67.10;;;;;;5094826;28;20989;-68
2023/05/20 09:17:22;;;;;;;10.43;7.60;;;21.90;67.10;;;;;;5095046;28;20474;-68
2023/05/20 09:19:50;;;;;;;7.70;6.90;;;22.10;67.10;;;;;;5095220;28;20439;-68
2023/05/20 09:22:22;;;;;;;14.30;8.80;;;22.20;65.80;;;;;;5094959;28;20431;-68
2023/05/20 09:24:51;;;;;;;9.67;7.73;;;22.40;64.70;;;;;;5094688;28;20434;-68
2023/05/20 09:27:18;;;;;;;8.80;7.30;;;22.50;63.00;;;;;;5094961;28;20435;-68
2023/05/20 09:29:45;;;;;;;10.37;8.13;;;22.50;62.40;;;;;;5094830;28;20750;-68
2023/05/20 09:32:12;;;;;;;8.50;7.33;;;22.50;63.20;;;;;;5094998;28;20426;-68
2023/05/20 09:34:41;;;;;;;11.03;7.60;;;22.50;61.90;;;;;;5094659;28;20567;-67
2023/05/20 09:37:09;;;;;;;8.03;6.30;;;22.50;63.50;;;;;;5094623;28;20438;-68
2023/05/20 09:39:47;;;;;;;12.23;6.40;;;22.50;64.90;;;;;;5094409;28;20917;-68
2023/05/20 09:42:21;;;;;;;7.43;6.23;;;22.70;66.10;;;;;;5094521;28;20434;-68
2023/05/20 09:44:50;;;;;;;6.93;5.60;;;22.90;66.10;;;;;;5094328;28;20418;-67
2023/05/20 09:47:18;;;;;;;7.40;6.47;;;23.20;67.50;;;;;;5094417;28;20521;-67
2023/05/20 09:49:47;;;;;;;8.00;6.30;;;23.60;65.70;;;;;;5094464;28;20435;-68
2023/05/20 09:52:17;;;;;;;11.10;8.90;;;24.00;65.20;;;;;;5094506;28;20580;-68
2023/05/20 09:54:47;;;;;;;11.20;8.63;;;24.30;63.80;;;;;;5094464;28;20510;-68
2023/05/20 09:57:14;;;;;;;10.27;8.30;;;24.50;60.50;;;;;;5094471;28;20423;-68
2023/05/20 09:59:42;;;;;;;8.00;6.70;;;24.70;58.90;;;;;;5094440;28;20439;-68
2023/05/20 10:02:09;;;;;;;11.50;7.80;;;24.90;58.80;;;;;;5094047;28;20465;-67
2023/05/20 10:04:41;;;;;;;9.53;6.83;;;25.30;59.50;;;;;;5093853;28;20467;-68
2023/05/20 10:07:38;;;;;;;8.00;6.33;;;25.50;56.80;;;;;;5094227;28;20430;-67
2023/05/20 10:10:17;;;;;;;8.43;6.80;;;25.60;55.90;;;;;;5076788;28;20461;-68
2023/05/20 10:12:55;;;;;;;10.60;7.23;;;25.60;57.00;;;;;;5093996;28;20480;-67
2023/05/20 10:15:28;;;;;;;7.73;6.93;;;25.60;56.40;;;;;;5093794;28;20856;-68
2023/05/20 10:18:06;;;;;;;10.00;7.63;;;25.70;56.80;;;;;;5093436;28;20583;-67
2023/05/20 10:20:33;;;;;;;6.20;5.60;;;25.70;55.10;;;;;;5093162;28;20454;-68
2023/05/20 10:22:59;;;;;;;13.80;7.47;;;25.70;55.10;;;;;;5093811;28;20489;-68
2023/05/20 10:25:28;;;;;;;6.07;5.47;;;25.80;55.40;;;;;;5093697;28;20427;-68
2023/05/20 10:28:07;;;;;;;7.80;6.60;;;25.60;54.30;;;;;;5093642;28;20459;-68
2023/05/20 10:30:34;;;;;;;7.60;5.50;;;25.60;53.50;;;;;;5093651;28;20427;-68
2023/05/20 10:33:05;;;;;;;6.20;5.27;;;25.50;54.30;;;;;;5094018;28;20466;-68
2023/05/20 10:35:32;;;;;;;6.10;5.17;;;25.50;55.00;;;;;;5093233;28;20485;-68
2023/05/20 10:38:09;;;;;;;8.40;6.73;;;25.60;56.10;;;;;;5093459;28;20453;-68
2023/05/20 10:40:37;;;;;;;5.80;4.70;;;25.70;55.60;;;;;;5093528;28;20427;-68
2023/05/20 10:43:11;;;;;;;8.77;6.83;;;25.70;56.00;;;;;;5093365;28;20522;-67
2023/05/20 10:45:49;;;;;;;7.57;6.77;;;25.70;55.50;;;;;;5093483;28;20431;-67
2023/05/20 10:48:25;;;;;;;6.67;5.10;;;25.70;55.40;;;;;;5093240;28;20459;-68
2023/05/20 10:50:56;;;;;;;8.37;5.80;;;25.70;54.80;;;;;;5093734;28;20427;-67
2023/05/20 10:53:25;;;;;;;6.50;5.77;;;25.70;54.90;;;;;;5093068;28;20492;-68
2023/05/20 10:55:54;;;;;;;6.03;5.00;;;25.80;55.80;;;;;;5093463;28;20757;-68
2023/05/20 10:58:23;;;;;;;7.20;4.90;;;25.90;55.00;;;;;;5092800;28;20423;-67
2023/05/20 11:00:53;;;;;;;8.60;6.10;;;26.00;55.80;;;;;;5093101;28;20435;-67
2023/05/20 11:03:21;;;;;;;6.50;5.37;;;26.10;54.50;;;;;;5093057;28;20433;-68
2023/05/20 11:05:49;;;;;;;8.30;6.10;;;26.10;53.20;;;;;;5092987;28;20466;-68
2023/05/20 11:08:15;;;;;;;5.77;5.20;;;25.90;52.80;;;;;;5092522;28;20467;-67
2023/05/20 11:10:44;;;;;;;9.73;4.80;;;25.80;52.60;;;;;;5092858;28;20459;-68
2023/05/20 11:13:14;;;;;;;6.20;4.87;;;25.70;52.90;;;;;;5092801;28;20438;-68
2023/05/20 11:15:42;;;;;;;4.77;4.00;;;25.50;51.80;;;;;;5092699;28;20482;-67
2023/05/20 11:18:13;;;;;;;5.47;4.23;;;25.40;54.10;;;;;;5092923;28;20455;-68
2023/05/20 11:20:39;;;;;;;7.17;4.93;;;25.50;55.40;;;;;;5092858;28;20781;-67
2023/05/20 11:23:11;;;;;;;7.30;4.70;;;25.60;54.00;;;;;;5092701;28;20517;-68
2023/05/20 11:25:38;;;;;;;6.60;4.33;;;25.70;54.40;;;;;;5092847;28;20436;-68
2023/05/20 11:28:08;;;;;;;5.77;4.30;;;25.80;54.20;;;;;;5092749;28;20506;-68
2023/05/20 11:30:36;;;;;;;4.23;3.80;;;25.80;53.30;;;;;;5092703;28;20512;-68
2023/05/20 11:33:04;;;;;;;5.80;4.90;;;26.00;52.80;;;;;;5096687;28;20455;-68
2023/05/20 11:35:32;;;;;;;7.33;4.23;;;26.20;52.20;;;;;;5096701;28;20516;-68
2023/05/20 11:38:02;;;;;;;5.37;4.70;;;26.40;52.80;;;;;;5096793;28;20808;-68
2023/05/20 11:40:30;;;;;;;4.73;4.20;;;26.60;50.70;;;;;;5096611;28;20462;-68
2023/05/20 11:42:59;;;;;;;7.50;4.40;;;26.70;50.00;;;;;;5096761;28;20438;-68
2023/05/20 11:45:27;;;;;;;8.83;4.47;;;26.80;49.90;;;;;;5096492;28;20427;-68
2023/05/20 11:48:03;;;;;;;4.97;3.90;;;26.90;49.30;;;;;;5096591;28;20757;-68
2023/05/20 11:50:35;;;;;;;4.83;3.30;;;26.80;48.00;;;;;;5096710;28;20467;-69
2023/05/20 11:53:03;;;;;;;4.67;4.00;;;26.80;48.90;;;;;;5096369;28;20488;-69
2023/05/20 11:55:33;;;;;;;3.93;3.40;;;26.70;50.00;;;;;;5096387;28;20547;-69
2023/05/20 11:58:01;;;;;;;4.93;3.77;;;26.80;49.20;;;;;;5096515;28;20483;-68
2023/05/20 12:00:28;;;;;;;3.80;3.10;;;26.80;49.90;;;;;;5096264;28;20807;-68
2023/05/20 12:02:55;;;;;;;4.03;3.60;;;26.70;49.10;;;;;;5096427;28;20862;-68
2023/05/20 12:05:24;;;;;;;4.17;3.77;;;26.60;47.70;;;;;;5095996;28;20977;-68
2023/05/20 12:07:51;;;;;;;4.97;3.07;;;26.50;49.90;;;;;;5096144;28;21015;-68
2023/05/20 12:10:21;;;;;;;4.60;3.17;;;26.50;48.90;;;;;;5095910;28;20469;-68
2023/05/20 12:12:48;;;;;;;4.33;3.40;;;26.50;49.50;;;;;;5096084;28;20522;-68
2023/05/20 12:15:14;;;;;;;4.03;2.63;;;26.50;46.70;;;;;;5095593;28;20525;-68
2023/05/20 12:17:47;;;;;;;5.43;2.90;;;26.40;48.00;;;;;;5096029;28;20496;-68
2023/05/20 12:20:16;;;;;;;5.00;2.70;;;26.40;49.40;;;;;;5095927;28;20423;-68
2023/05/20 12:22:45;;;;;;;3.60;2.60;;;26.50;48.70;;;;;;5095938;28;20431;-69
2023/05/20 12:25:14;;;;;;;3.07;2.43;;;26.60;49.40;;;;;;5095932;28;20489;-68
2023/05/20 12:27:41;;;;;;;3.70;2.93;;;26.80;50.80;;;;;;5096000;28;20435;-68
2023/05/20 12:30:16;;;;;;;3.60;2.63;;;27.00;48.80;;;;;;5095976;28;20463;-68
2023/05/20 12:32:44;;;;;;;4.00;2.90;;;27.10;47.20;;;;;;5096114;28;20441;-69
2023/05/20 12:35:12;;;;;;;3.90;2.67;;;27.20;47.70;;;;;;5095774;28;20462;-68
2023/05/20 12:37:40;;;;;;;4.30;2.60;;;27.40;46.50;;;;;;5095731;28;20454;-69
2023/05/20 12:40:11;;;;;;;3.80;2.90;;;27.60;47.70;;;;;;5095562;28;20435;-68